Time;durP1;ratioP1;P1;durP2;ratioP2;P2;SDS_P1;SDS_P2;PMS_P1;PMS_P2;Temp;Humidity;BMP_temperature;BMP_pressure;BME280_temperature;BME280_humidity;BME280_pressure;Samples;Min_cycle;Max_cycle;Signal;HPM_P1;HPM_P2
2021/07/13 00:00:30;;;;;;;3.67;0.98;;;;;;;;;;5095957;28;20602;-87
2021/07/13 00:02:56;;;;;;;0.70;0.68;;;;;;;;;;5090294;28;20036;-87
2021/07/13 00:05:22;;;;;;;3.13;1.38;;;;;;;;;;5088070;28;20020;-87
2021/07/13 00:07:49;;;;;;;2.55;0.52;;;;;;;;;;5078940;28;20090;-88
2021/07/13 00:10:21;;;;;;;5.15;1.15;;;16.70;76.20;;;;;;5085160;28;20032;-87
2021/07/13 00:12:47;;;;;;;1.60;0.98;;;16.70;75.90;;;;;;5088398;28;20029;-87
2021/07/13 00:15:37;;;;;;;1.33;0.90;;;16.70;75.70;;;;;;5073395;28;20107;-87
2021/07/13 00:18:04;;;;;;;4.50;0.63;;;;;;;;;;5077286;28;20016;-87
2021/07/13 00:20:30;;;;;;;2.72;1.58;;;;;;;;;;5089413;28;20020;-86
2021/07/13 00:22:57;;;;;;;3.72;2.35;;;;;;;;;;5079018;28;20059;-87
2021/07/13 00:25:24;;;;;;;1.70;0.98;;;;;;;;;;5080897;28;20019;-87
2021/07/13 00:27:50;;;;;;;2.35;1.25;;;;;;;;;;5088885;28;20035;-88
2021/07/13 00:30:17;;;;;;;1.13;1.00;;;;;;;;;;5078699;28;20024;-85
2021/07/13 00:32:43;;;;;;;7.55;1.10;;;16.50;74.40;;;;;;5072904;28;20028;-87
2021/07/13 00:35:09;;;;;;;2.35;0.95;;;;;;;;;;5087326;28;20109;-87
2021/07/13 00:37:36;;;;;;;1.30;0.77;;;;;;;;;;5084093;28;20570;-89
2021/07/13 00:40:02;;;;;;;2.03;1.58;;;;;;;;;;5084837;28;20065;-87
2021/07/13 00:42:28;;;;;;;1.15;0.75;;;;;;;;;;5087317;28;20479;-87
2021/07/13 00:44:54;;;;;;;1.23;1.13;;;;;;;;;;5072780;28;20024;-87
2021/07/13 00:47:21;;;;;;;2.67;1.35;;;;;;;;;;5090934;28;20024;-87
2021/07/13 00:49:47;;;;;;;2.17;1.30;;;;;;;;;;5092105;28;20028;-88
2021/07/13 00:52:13;;;;;;;0.80;0.70;;;;;;;;;;5078186;28;20048;-87
2021/07/13 00:54:43;;;;;;;3.53;1.17;;;16.90;75.40;;;;;;5078527;28;20101;-88
2021/07/13 00:57:10;;;;;;;1.63;1.10;;;17.00;75.40;;;;;;5076601;28;20065;-88
2021/07/13 00:59:37;;;;;;;1.42;0.80;;;16.90;75.10;;;;;;5089166;28;20056;-87
2021/07/13 01:02:04;;;;;;;1.52;1.17;;;;;;;;;;5090621;28;20511;-87
2021/07/13 01:04:30;;;;;;;1.35;0.73;;;;;;;;;;5074588;28;20067;-87
2021/07/13 01:07:10;;;;;;;1.70;1.30;;;16.60;74.30;;;;;;5076539;28;20031;-88
2021/07/13 01:09:59;;;;;;;2.33;1.10;;;;;;;;;;5089134;28;20051;-87
2021/07/13 01:12:39;;;;;;;5.60;2.00;;;16.40;75.00;;;;;;5091804;28;20032;-89
2021/07/13 01:15:07;;;;;;;1.30;1.00;;;16.50;75.30;;;;;;5074564;28;20028;-88
2021/07/13 01:17:36;;;;;;;8.95;1.75;;;;;;;;;;5071801;28;20161;-87
2021/07/13 01:20:02;;;;;;;1.67;1.02;;;;;;;;;;5090227;28;20093;-87
2021/07/13 01:22:29;;;;;;;1.15;0.70;;;;;;;;;;5073869;28;20033;-88
2021/07/13 01:25:11;;;;;;;1.92;0.90;;;16.50;75.30;;;;;;5075989;28;20433;-87
2021/07/13 01:27:57;;;;;;;1.23;1.00;;;16.50;75.30;;;;;;5079168;28;20039;-88
2021/07/13 01:30:28;;;;;;;2.08;1.05;;;;;;;;;;5075141;28;20035;-87
2021/07/13 01:32:56;;;;;;;3.13;2.08;;;;;;;;;;5073610;28;20048;-87
2021/07/13 01:35:29;;;;;;;1.80;0.57;;;;;;;;;;5086274;28;20028;-86
2021/07/13 01:37:57;;;;;;;1.58;0.77;;;16.50;75.00;;;;;;5075947;28;20581;-87
2021/07/13 01:40:24;;;;;;;2.20;1.95;;;16.50;75.40;;;;;;5087091;28;20079;-88
2021/07/13 01:42:51;;;;;;;1.52;0.98;;;;;;;;;;5085928;28;20501;-88
2021/07/13 01:45:18;;;;;;;0.80;0.80;;;;;;;;;;5078238;28;20055;-86
2021/07/13 01:47:44;;;;;;;1.52;0.95;;;;;;;;;;5070616;28;20020;-87
2021/07/13 01:50:11;;;;;;;0.95;0.60;;;;;;;;;;5086375;28;20484;-88
2021/07/13 01:52:37;;;;;;;0.90;0.80;;;;;;;;;;5087045;28;20077;-87
2021/07/13 01:55:04;;;;;;;1.50;0.80;;;;;;;;;;5084316;28;20024;-88
2021/07/13 01:57:32;;;;;;;2.13;1.15;;;;;;;;;;5082512;28;20036;-87
2021/07/13 02:00:00;;;;;;;0.60;0.60;;;16.00;74.80;;;;;;5086878;28;20068;-88
2021/07/13 02:02:28;;;;;;;1.98;1.13;;;15.90;74.80;;;;;;5086900;28;20023;-87
2021/07/13 02:04:55;;;;;;;1.23;1.00;;;;;;;;;;5093477;28;20040;-87
2021/07/13 02:07:22;;;;;;;1.15;0.90;;;15.90;75.90;;;;;;5077761;28;20504;-87
2021/07/13 02:09:48;;;;;;;;;;;16.00;76.30;;;;;;5072926;28;20131;-89
2021/07/13 02:12:14;;;;;;;0.80;0.80;;;;;;;;;;5073440;28;20002;-88
2021/07/13 02:14:41;;;;;;;3.80;1.48;;;;;;;;;;5088281;28;20400;-87
2021/07/13 02:17:07;;;;;;;2.78;1.25;;;;;;;;;;5087046;28;20028;-88
2021/07/13 02:19:33;;;;;;;1.85;0.98;;;;;;;;;;5072721;28;20119;-88
2021/07/13 02:21:59;;;;;;;1.55;0.68;;;;;;;;;;5082010;28;20492;-88
2021/07/13 02:24:25;;;;;;;3.17;1.25;;;;;;;;;;5086142;28;20031;-87
2021/07/13 02:26:52;;;;;;;1.30;0.70;;;;;;;;;;5071015;28;20119;-88
2021/07/13 02:29:37;;;;;;;1.63;1.23;;;;;;;;;;5069771;28;20486;-89
2021/07/13 02:32:08;;;;;;;3.08;1.23;;;;;;;;;;5089643;28;20497;-87
2021/07/13 02:34:36;;;;;;;2.75;1.58;;;;;;;;;;5075770;28;20024;-86
2021/07/13 02:37:04;;;;;;;1.20;1.10;;;16.10;76.70;;;;;;5070810;28;20043;-88
2021/07/13 02:39:32;;;;;;;1.60;0.95;;;16.20;75.80;;;;;;5078422;28;20661;-87
2021/07/13 02:41:59;;;;;;;1.98;1.00;;;16.20;75.70;;;;;;5072106;28;20575;-88
2021/07/13 02:44:26;;;;;;;;;;;16.20;75.00;;;;;;5090833;28;20493;-87
2021/07/13 02:46:53;;;;;;;0.70;0.68;;;;;;;;;;5101135;28;20598;-88
2021/07/13 02:49:24;;;;;;;0.95;0.85;;;;;;;;;;5082217;28;20461;-87
2021/07/13 02:51:51;;;;;;;1.08;0.88;;;15.90;76.50;;;;;;5083786;28;20085;-87
2021/07/13 02:54:19;;;;;;;0.93;0.85;;;15.90;77.00;;;;;;5070874;28;20436;-88
2021/07/13 02:56:45;;;;;;;1.48;1.13;;;;;;;;;;5089071;28;20420;-87
2021/07/13 02:59:12;;;;;;;1.30;0.85;;;16.00;76.80;;;;;;5090592;28;20716;-87
2021/07/13 03:01:38;;;;;;;2.25;1.25;;;;;;;;;;5071961;28;20094;-88
2021/07/13 03:04:05;;;;;;;0.95;0.85;;;16.00;77.00;;;;;;5079762;28;20040;-88
2021/07/13 03:06:32;;;;;;;15.90;2.55;;;;;;;;;;5081677;28;20025;-88
2021/07/13 03:08:58;;;;;;;2.17;0.70;;;;;;;;;;5072163;28;20162;-87
2021/07/13 03:11:24;;;;;;;3.60;1.02;;;;;;;;;;5092936;28;20044;-88
2021/07/13 03:13:50;;;;;;;2.58;1.10;;;;;;;;;;5091049;28;20024;-87
2021/07/13 03:16:16;;;;;;;1.27;1.13;;;;;;;;;;5083180;28;20039;-87
2021/07/13 03:18:42;;;;;;;1.20;0.80;;;;;;;;;;5084461;28;20411;-89
2021/07/13 03:21:10;;;;;;;4.78;0.93;;;;;;;;;;5090107;28;20097;-89
2021/07/13 03:23:38;;;;;;;1.45;1.00;;;;;;;;;;5073941;28;20073;-88
2021/07/13 03:26:04;;;;;;;1.67;1.23;;;;;;;;;;5074738;28;20101;-88
2021/07/13 03:28:31;;;;;;;1.60;0.65;;;15.90;77.20;;;;;;5077897;28;20508;-87
2021/07/13 03:30:58;;;;;;;1.42;0.98;;;;;;;;;;5083385;28;20044;-87
2021/07/13 03:33:24;;;;;;;1.13;0.90;;;;;;;;;;5087996;28;20017;-88
2021/07/13 03:35:50;;;;;;;1.20;1.00;;;;;;;;;;5090833;28;20103;-89
2021/07/13 03:38:17;;;;;;;1.10;0.80;;;15.90;77.20;;;;;;5078603;28;20111;-88
2021/07/13 03:40:45;;;;;;;5.22;2.05;;;;;;;;;;5087735;28;20036;-87
2021/07/13 03:43:10;;;;;;;;;;;15.90;77.10;;;;;;5084390;28;20150;-87
2021/07/13 03:45:36;;;;;;;1.50;0.90;;;;;;;;;;5082068;28;20590;-87
2021/07/13 03:48:02;;;;;;;1.77;0.82;;;;;;;;;;5075826;28;20025;-88
2021/07/13 03:50:33;;;;;;;1.58;1.40;;;15.90;77.30;;;;;;5076605;28;20031;-89
2021/07/13 03:52:59;;;;;;;1.10;1.00;;;;;;;;;;5094078;28;20154;-88
2021/07/13 03:55:25;;;;;;;1.52;1.00;;;;;;;;;;5093100;28;20035;-88
2021/07/13 03:57:53;;;;;;;1.77;1.27;;;;;;;;;;5081626;28;20043;-88
2021/07/13 04:00:21;;;;;;;4.57;1.10;;;16.00;76.90;;;;;;5080151;28;20404;-87
2021/07/13 04:02:47;;;;;;;2.05;1.17;;;;;;;;;;5074568;28;20024;-88
2021/07/13 04:05:14;;;;;;;1.27;0.90;;;;;;;;;;5078441;28;20377;-88
2021/07/13 04:07:40;;;;;;;2.20;1.40;;;;;;;;;;5091292;28;20110;-88
2021/07/13 04:10:10;;;;;;;2.35;1.27;;;;;;;;;;5090545;28;20585;-88
2021/07/13 04:12:36;;;;;;;1.42;1.23;;;;;;;;;;5093382;28;20484;-88
2021/07/13 04:15:04;;;;;;;6.32;0.73;;;15.80;77.40;;;;;;5087603;28;20025;-88
2021/07/13 04:17:30;;;;;;;0.85;0.70;;;;;;;;;;5073476;28;20400;-87
2021/07/13 04:19:56;;;;;;;1.92;1.33;;;;;;;;;;5072473;28;20025;-87
2021/07/13 04:22:22;;;;;;;2.05;1.05;;;;;;;;;;5072974;28;20401;-89
2021/07/13 04:24:48;;;;;;;3.90;1.40;;;;;;;;;;5083175;28;20039;-87
2021/07/13 04:27:14;;;;;;;1.38;1.20;;;;;;;;;;5085972;28;20063;-87
2021/07/13 04:29:40;;;;;;;1.52;0.85;;;;;;;;;;5088731;28;20047;-88
2021/07/13 04:32:06;;;;;;;2.30;0.95;;;;;;;;;;5092310;28;20027;-88
2021/07/13 04:34:32;;;;;;;1.10;1.00;;;;;;;;;;5084310;28;20565;-88
2021/07/13 04:36:58;;;;;;;1.90;1.00;;;;;;;;;;5087659;28;20125;-88
2021/07/13 04:39:24;;;;;;;1.83;1.23;;;;;;;;;;5087938;28;20025;-87
2021/07/13 04:41:50;;;;;;;1.15;1.05;;;;;;;;;;5090868;28;20031;-87
2021/07/13 04:44:16;;;;;;;6.05;1.38;;;;;;;;;;5073414;28;20116;-88
2021/07/13 04:46:42;;;;;;;2.40;1.23;;;;;;;;;;5085334;28;20028;-88
2021/07/13 04:49:12;;;;;;;2.03;1.30;;;;;;;;;;5089211;28;20032;-87
2021/07/13 04:51:38;;;;;;;3.95;1.08;;;;;;;;;;5087929;28;20036;-87
2021/07/13 04:54:04;;;;;;;1.40;1.30;;;;;;;;;;5076106;28;20504;-87
2021/07/13 04:56:30;;;;;;;6.00;1.70;;;;;;;;;;5070773;28;20029;-87
2021/07/13 04:58:56;;;;;;;1.08;0.80;;;;;;;;;;5090481;28;20020;-88
2021/07/13 05:01:22;;;;;;;2.05;1.10;;;;;;;;;;5077687;28;20078;-87
2021/07/13 05:03:48;;;;;;;1.13;0.90;;;;;;;;;;5077629;28;20507;-88
2021/07/13 05:06:14;;;;;;;1.30;0.95;;;;;;;;;;5088904;28;20028;-87
2021/07/13 05:08:41;;;;;;;0.95;0.85;;;;;;;;;;5089677;28;20024;-87
2021/07/13 05:11:07;;;;;;;2.17;1.05;;;;;;;;;;5077929;28;20052;-87
2021/07/13 05:13:33;;;;;;;1.90;1.08;;;;;;;;;;5072217;28;20021;-88
2021/07/13 05:15:59;;;;;;;1.23;0.88;;;;;;;;;;5080919;28;20484;-88
2021/07/13 05:18:25;;;;;;;3.92;1.10;;;;;;;;;;5083536;28;20086;-88
2021/07/13 05:20:57;;;;;;;2.50;0.80;;;;;;;;;;5090530;28;20054;-88
2021/07/13 05:23:23;;;;;;;1.42;0.98;;;;;;;;;;5075178;28;20020;-88
2021/07/13 05:25:49;;;;;;;1.23;1.10;;;;;;;;;;5078973;28;20035;-88
2021/07/13 05:28:15;;;;;;;3.05;1.45;;;;;;;;;;5083043;28;20031;-87
2021/07/13 05:30:43;;;;;;;4.32;1.70;;;16.20;77.20;;;;;;5088334;28;20063;-88
2021/07/13 05:33:09;;;;;;;2.25;1.10;;;;;;;;;;5073412;28;20081;-88
2021/07/13 05:35:35;;;;;;;1.05;0.95;;;;;;;;;;5074358;28;20033;-87
2021/07/13 05:38:01;;;;;;;5.85;1.63;;;;;;;;;;5078363;28;20040;-87
2021/07/13 05:40:27;;;;;;;1.55;0.93;;;;;;;;;;5080884;28;20032;-88
2021/07/13 05:42:54;;;;;;;1.15;0.77;;;;;;;;;;5086844;28;20008;-87
2021/07/13 05:45:20;;;;;;;1.42;1.00;;;;;;;;;;5084740;28;20032;-88
2021/07/13 05:47:46;;;;;;;3.70;1.30;;;;;;;;;;5087716;28;20025;-89
2021/07/13 05:50:12;;;;;;;1.83;1.17;;;;;;;;;;5090731;28;20043;-88
2021/07/13 05:52:39;;;;;;;3.08;1.58;;;;;;;;;;5076673;28;20028;-89
2021/07/13 05:55:05;;;;;;;2.05;1.27;;;16.20;76.00;;;;;;5084480;28;20115;-89
2021/07/13 05:57:32;;;;;;;3.55;2.17;;;;;;;;;;5087633;28;20028;-89
2021/07/13 05:59:58;;;;;;;2.50;2.10;;;;;;;;;;5074496;28;20036;-89
2021/07/13 06:02:24;;;;;;;1.65;1.13;;;;;;;;;;5074940;28;20070;-88
2021/07/13 06:04:50;;;;;;;2.85;1.58;;;;;;;;;;5090248;28;20028;-86
2021/07/13 06:07:16;;;;;;;2.13;1.48;;;;;;;;;;5080599;28;20123;-87
2021/07/13 06:09:42;;;;;;;1.55;1.10;;;;;;;;;;5081519;28;20081;-87
2021/07/13 06:12:08;;;;;;;1.38;1.25;;;;;;;;;;5084458;28;20040;-88
2021/07/13 06:14:36;;;;;;;2.15;1.13;;;;;;;;;;5082553;28;20054;-87
2021/07/13 06:17:03;;;;;;;1.67;1.00;;;16.50;73.40;;;;;;5080052;28;20043;-90
2021/07/13 06:19:29;;;;;;;2.10;1.27;;;;;;;;;;5084628;28;20055;-89
2021/07/13 06:21:55;;;;;;;3.38;0.93;;;;;;;;;;5085914;28;20028;-88
2021/07/13 06:24:21;;;;;;;3.38;0.80;;;;;;;;;;5090661;28;20020;-89
2021/07/13 06:26:47;;;;;;;1.75;1.05;;;;;;;;;;5082886;28;20552;-87
2021/07/13 06:29:13;;;;;;;4.53;0.70;;;;;;;;;;5086201;28;20039;-87
2021/07/13 06:31:39;;;;;;;1.38;1.27;;;;;;;;;;5070178;28;20530;-88
2021/07/13 06:34:06;;;;;;;1.88;0.90;;;;;;;;;;5069416;28;20025;-87
2021/07/13 06:36:32;;;;;;;0.70;0.60;;;;;;;;;;5072230;28;20033;-87
2021/07/13 06:38:58;;;;;;;1.70;1.35;;;;;;;;;;5089503;28;20415;-87
2021/07/13 06:41:24;;;;;;;0.93;0.63;;;;;;;;;;5073342;28;20028;-88
2021/07/13 06:43:50;;;;;;;1.65;0.75;;;;;;;;;;5074187;28;20485;-87
2021/07/13 06:46:17;;;;;;;3.05;0.93;;;;;;;;;;5077741;28;20074;-87
2021/07/13 06:48:43;;;;;;;1.08;0.60;;;;;;;;;;5076912;28;20031;-87
2021/07/13 06:51:09;;;;;;;2.05;0.75;;;;;;;;;;5087793;28;20082;-87
2021/07/13 06:53:35;;;;;;;1.23;0.75;;;;;;;;;;5083250;28;20029;-88
2021/07/13 06:56:01;;;;;;;0.80;0.70;;;;;;;;;;5082936;28;20561;-90
2021/07/13 06:58:27;;;;;;;2.42;0.98;;;;;;;;;;5086108;28;20408;-89
2021/07/13 07:00:53;;;;;;;0.55;0.45;;;;;;;;;;5090446;28;20405;-88
2021/07/13 07:03:19;;;;;;;1.50;0.77;;;;;;;;;;5086815;28;20025;-89
2021/07/13 07:05:45;;;;;;;0.98;0.85;;;;;;;;;;5091746;28;20035;-88
2021/07/13 07:08:11;;;;;;;1.73;0.60;;;;;;;;;;5089523;28;20111;-88
2021/07/13 07:10:37;;;;;;;0.60;0.60;;;;;;;;;;5091306;28;20126;-88
2021/07/13 07:13:03;;;;;;;1.92;0.90;;;;;;;;;;5092948;28;20027;-90
2021/07/13 07:15:29;;;;;;;0.75;0.63;;;;;;;;;;5085569;28;20419;-90
2021/07/13 07:17:55;;;;;;;0.70;0.70;;;;;;;;;;5090837;28;20196;-88
2021/07/13 07:20:26;;;;;;;1.08;0.85;;;15.70;91.10;;;;;;5094584;28;20029;-89
2021/07/13 07:22:52;;;;;;;0.60;0.50;;;;;;;;;;5092101;28;20028;-88
2021/07/13 07:25:19;;;;;;;0.95;0.60;;;;;;;;;;5078482;28;20036;-89
2021/07/13 07:27:45;;;;;;;0.60;0.60;;;;;;;;;;5073753;28;20040;-88
2021/07/13 07:30:12;;;;;;;0.60;0.57;;;;;;;;;;5073888;28;20072;-88
2021/07/13 07:32:39;;;;;;;0.90;0.70;;;16.30;74.70;;;;;;5073915;28;20073;-86
2021/07/13 07:35:06;;;;;;;0.73;0.70;;;16.30;74.20;;;;;;5092727;28;20102;-87
2021/07/13 07:37:33;;;;;;;3.85;0.60;;;;;;;;;;5090525;28;20152;-87
2021/07/13 07:39:59;;;;;;;0.70;0.70;;;;;;;;;;5084380;28;20036;-88
2021/07/13 07:42:25;;;;;;;0.93;0.82;;;;;;;;;;5082157;28;20393;-87
2021/07/13 07:44:51;;;;;;;0.80;0.73;;;;;;;;;;5089254;28;20064;-89
2021/07/13 07:47:17;;;;;;;2.83;1.88;;;;;;;;;;5088540;28;20561;-87
2021/07/13 07:49:43;;;;;;;4.13;0.65;;;;;;;;;;5076106;28;20028;-88
2021/07/13 07:52:09;;;;;;;0.95;0.70;;;;;;;;;;5087492;28;20044;-89
2021/07/13 07:54:35;;;;;;;8.32;0.80;;;;;;;;;;5086966;28;20028;-86
2021/07/13 07:57:01;;;;;;;1.52;0.65;;;;;;;;;;5088393;28;20035;-87
2021/07/13 07:59:27;;;;;;;0.90;0.88;;;;;;;;;;5081969;28;20523;-88
2021/07/13 08:01:53;;;;;;;0.98;0.70;;;;;;;;;;5086868;28;20016;-88
2021/07/13 08:04:19;;;;;;;1.75;1.15;;;;;;;;;;5091272;28;20039;-87
2021/07/13 08:06:45;;;;;;;0.95;0.80;;;;;;;;;;5091683;28;20024;-87
2021/07/13 08:09:11;;;;;;;0.60;0.60;;;;;;;;;;5090010;28;20085;-87
2021/07/13 08:11:37;;;;;;;0.60;0.50;;;;;;;;;;5089255;28;20394;-88
2021/07/13 08:14:04;;;;;;;1.30;0.68;;;;;;;;;;5077487;28;20790;-88
2021/07/13 08:16:35;;;;;;;0.65;0.60;;;;;;;;;;5074707;28;20047;-88
2021/07/13 08:19:01;;;;;;;2.08;0.70;;;;;;;;;;5079672;28;20029;-90
2021/07/13 08:21:27;;;;;;;2.05;0.75;;;;;;;;;;5074982;28;20017;-89
2021/07/13 08:23:53;;;;;;;0.60;0.60;;;;;;;;;;5088503;28;20037;-88
2021/07/13 08:26:19;;;;;;;0.55;0.55;;;;;;;;;;5092723;28;20519;-87
2021/07/13 08:28:45;;;;;;;0.90;0.60;;;;;;;;;;5090199;28;20032;-87
2021/07/13 08:31:11;;;;;;;1.25;0.88;;;;;;;;;;5077777;28;20111;-88
2021/07/13 08:33:37;;;;;;;0.75;0.63;;;;;;;;;;5087744;28;20119;-88
2021/07/13 08:36:03;;;;;;;1.13;0.93;;;;;;;;;;5074564;28;20050;-86
2021/07/13 08:38:29;;;;;;;3.15;0.57;;;;;;;;;;5070861;28;20710;-86
2021/07/13 08:40:55;;;;;;;0.63;0.50;;;;;;;;;;5092737;28;20059;-89
2021/07/13 08:43:25;;;;;;;0.73;0.50;;;17.10;69.60;;;;;;5082832;28;20024;-88
2021/07/13 08:45:52;;;;;;;1.42;0.70;;;;;;;;;;5085545;28;20286;-90
2021/07/13 08:48:19;;;;;;;1.23;1.13;;;;;;;;;;5071990;28;20074;-88
2021/07/13 08:50:45;;;;;;;0.80;0.60;;;;;;;;;;5071138;28;20051;-89
2021/07/13 08:53:11;;;;;;;8.93;0.90;;;;;;;;;;5073531;28;20017;-86
2021/07/13 08:55:37;;;;;;;3.83;0.85;;;;;;;;;;5078227;28;20021;-89
2021/07/13 08:58:03;;;;;;;1.45;0.73;;;;;;;;;;5078840;28;20029;-87
2021/07/13 09:00:29;;;;;;;1.65;1.05;;;;;;;;;;5076811;28;20031;-90
2021/07/13 09:03:07;;;;;;;0.65;0.57;;;;;;;;;;5073466;28;20020;-90
2021/07/13 09:06:00;;;;;;;1.17;0.73;;;;;;;;;;5072928;28;20060;-93
2021/07/13 09:08:30;;;;;;;0.38;0.38;;;;;;;;;;5085486;28;20489;-95
2021/07/13 09:11:12;;;;;;;0.60;0.60;;;19.00;64.50;;;;;;5092858;28;20412;-91
2021/07/13 09:13:46;;;;;;;0.95;0.70;;;19.20;63.90;;;;;;5077154;28;20036;-91
2021/07/13 09:16:15;;;;;;;1.00;0.65;;;19.50;61.50;;;;;;5087850;28;20024;-90
2021/07/13 09:18:52;;;;;;;0.55;0.47;;;19.90;61.50;;;;;;5083602;28;20039;-90
2021/07/13 09:21:35;;;;;;;2.03;0.60;;;20.40;60.30;;;;;;5072443;28;20580;-91
2021/07/13 09:24:04;;;;;;;2.83;0.70;;;;;;;;;;5073231;28;20039;-90
2021/07/13 09:26:53;;;;;;;0.65;0.50;;;21.50;76.80;;;;;;5091180;28;20407;-89
2021/07/13 09:29:37;;;;;;;1.40;0.82;;;21.90;55.30;;;;;;5088354;28;20086;-90
2021/07/13 09:32:32;;;;;;;1.73;0.65;;;22.40;53.80;;;;;;5072820;28;20111;-90
2021/07/13 09:35:01;;;;;;;1.33;0.75;;;;;;;;;;5090810;28;20051;-91
2021/07/13 09:37:32;;;;;;;0.50;0.50;;;23.30;52.60;;;;;;5076175;28;20249;-91
2021/07/13 09:40:09;;;;;;;0.45;0.45;;;24.70;48.60;;;;;;5073089;28;20064;-92
2021/07/13 09:42:45;;;;;;;1.40;1.30;;;;;;;;;;5081500;28;20023;-93
2021/07/13 09:45:32;;;;;;;0.47;0.40;;;25.80;45.30;;;;;;5080514;28;20036;-92
2021/07/13 09:48:14;;;;;;;1.40;0.70;;;25.00;46.90;;;;;;5072829;28;20029;-91
2021/07/13 09:50:40;;;;;;;1.38;0.40;;;24.20;48.50;;;;;;5088059;28;20520;-90
2021/07/13 09:53:13;;;;;;;0.50;0.50;;;24.00;48.90;;;;;;5072827;28;20020;-92
2021/07/13 09:55:39;;;;;;;1.38;0.60;;;;;;;;;;5072140;28;20471;-93
2021/07/13 09:58:17;;;;;;;0.85;0.68;;;24.00;47.60;;;;;;5071786;28;20036;-89
2021/07/13 10:00:52;;;;;;;0.68;0.50;;;23.90;48.90;;;;;;5074308;28;20082;-90
2021/07/13 10:03:19;;;;;;;0.93;0.50;;;23.70;48.90;;;;;;5077989;28;20054;-88
2021/07/13 10:05:47;;;;;;;1.10;0.65;;;23.60;49.60;;;;;;5071952;28;20119;-88
2021/07/13 10:08:13;;;;;;;1.30;0.88;;;23.30;49.70;;;;;;5090221;28;20512;-89
2021/07/13 10:10:42;;;;;;;2.40;0.50;;;23.20;50.10;;;;;;5091142;28;20036;-89
2021/07/13 10:13:08;;;;;;;1.02;0.60;;;;;;;;;;5078924;28;20036;-89
2021/07/13 10:15:35;;;;;;;0.57;0.57;;;;;;;;;;5080822;28;20090;-88
2021/07/13 10:18:02;;;;;;;1.40;0.97;;;23.80;49.00;;;;;;5079978;28;20509;-88
2021/07/13 10:20:31;;;;;;;1.02;0.73;;;24.20;48.10;;;;;;5098211;28;20079;-88
2021/07/13 10:22:58;;;;;;;0.90;0.90;;;;;;;;;;5090106;28;20077;-90
2021/07/13 10:25:45;;;;;;;3.08;0.80;;;25.50;45.40;;;;;;5093430;28;20024;-89
2021/07/13 10:28:12;;;;;;;0.75;0.52;;;;;;;;;;5090672;28;20028;-89
2021/07/13 10:30:46;;;;;;;1.02;0.52;;;24.40;45.70;;;;;;5084019;28;20043;-89
2021/07/13 10:33:29;;;;;;;1.60;0.50;;;23.80;48.20;;;;;;5075696;28;20032;-90
2021/07/13 10:35:56;;;;;;;0.80;0.50;;;;;;;;;;5077702;28;20154;-89
2021/07/13 10:38:25;;;;;;;0.50;0.50;;;;;;;;;;5094736;28;20052;-90
2021/07/13 10:40:54;;;;;;;4.07;0.90;;;;;;;;;;5091177;28;20039;-90
2021/07/13 10:43:21;;;;;;;2.28;0.68;;;;;;;;;;5091551;28;20039;-90
2021/07/13 10:46:03;;;;;;;0.80;0.40;;;24.90;45.70;;;;;;5083558;28;20383;-89
2021/07/13 10:48:29;;;;;;;5.65;0.75;;;;;;;;;;5079861;28;20028;-90
2021/07/13 10:51:03;;;;;;;4.72;0.80;;;26.30;42.40;;;;;;5078784;28;20066;-89
2021/07/13 10:53:38;;;;;;;1.77;0.70;;;28.30;42.30;;;;;;5091183;28;20046;-90
2021/07/13 10:56:15;;;;;;;0.45;0.38;;;28.00;40.10;;;;;;5093934;28;20032;-90
2021/07/13 10:58:51;;;;;;;2.72;0.55;;;28.00;39.80;;;;;;5105122;28;20032;-90
2021/07/13 11:01:24;;;;;;;0.33;0.33;;;27.70;41.40;;;;;;5077686;28;20039;-90
2021/07/13 11:03:50;;;;;;;0.85;0.40;;;;;;;;;;5083950;28;20294;-90
2021/07/13 11:06:18;;;;;;;0.57;0.50;;;27.00;39.60;;;;;;5089690;28;20028;-90
2021/07/13 11:08:44;;;;;;;0.65;0.40;;;;;;;;;;5094948;28;20032;-90
2021/07/13 11:11:17;;;;;;;0.95;0.55;;;;;;;;;;5094286;28;20040;-91
2021/07/13 11:13:44;;;;;;;1.20;0.73;;;24.40;45.90;;;;;;5074980;28;20622;-91
2021/07/13 11:16:10;;;;;;;;;;;23.90;47.80;;;;;;5076035;28;20029;-90
2021/07/13 11:18:37;;;;;;;0.73;0.47;;;;;;;;;;5074572;28;20396;-90
2021/07/13 11:21:15;;;;;;;;;;;23.20;47.80;;;;;;5081300;28;20103;-90
2021/07/13 11:23:41;;;;;;;0.55;0.40;;;;;;;;;;5094855;28;19995;-90
2021/07/13 11:26:09;;;;;;;0.38;0.35;;;23.00;49.20;;;;;;5093636;28;20036;-93
2021/07/13 11:28:43;;;;;;;0.93;0.60;;;23.00;48.60;;;;;;5076418;28;20047;-90
2021/07/13 11:31:09;;;;;;;0.60;0.50;;;;;;;;;;5089371;28;20039;-90
2021/07/13 11:33:35;;;;;;;0.60;0.35;;;;;;;;;;5091953;28;20020;-90
2021/07/13 11:36:03;;;;;;;27.73;1.17;;;;;;;;;;5078857;28;20111;-89
2021/07/13 11:38:31;;;;;;;0.73;0.52;;;23.00;45.90;;;;;;5094205;28;20043;-90
2021/07/13 11:41:10;;;;;;;0.28;0.25;;;;;;;;;;5085967;28;20051;-92
2021/07/13 11:43:36;;;;;;;2.92;0.60;;;;;;;;;;5090027;28;20024;-92
2021/07/13 11:46:12;;;;;;;1.13;0.73;;;;;;;;;;5089980;28;20029;-91
2021/07/13 11:48:38;;;;;;;2.15;0.60;;;;;;;;;;5086146;28;20064;-79
2021/07/13 11:51:04;;;;;;;3.85;0.70;;;;;;;;;;5077620;28;20036;-91
2021/07/13 11:53:31;;;;;;;0.68;0.30;;;;;;;;;;5077695;28;20044;-92
2021/07/13 11:55:59;;;;;;;0.55;0.45;;;22.90;47.40;;;;;;5079481;28;20031;-91
2021/07/13 11:58:30;;;;;;;0.60;0.40;;;22.70;48.90;;;;;;5076944;28;20043;-91
2021/07/13 12:01:16;;;;;;;0.47;0.40;;;22.60;47.80;;;;;;5079625;28;20021;-90
2021/07/13 12:03:42;;;;;;;10.27;1.00;;;;;;;;;;5070555;28;20036;-90
2021/07/13 12:06:11;;;;;;;0.65;0.35;;;22.10;47.40;;;;;;5076458;28;20122;-92
2021/07/13 12:08:37;;;;;;;1.40;0.70;;;;;;;;;;5090780;28;20024;-92
2021/07/13 12:11:06;;;;;;;0.93;0.63;;;;;;;;;;5074341;28;20167;-91
2021/07/13 12:13:32;;;;;;;1.38;0.47;;;;;;;;;;5084649;28;20028;-92
2021/07/13 12:16:18;;;;;;;1.25;0.70;;;21.60;50.80;;;;;;5088885;28;20032;-90
2021/07/13 12:18:44;;;;;;;0.43;0.40;;;;;;;;;;5078478;28;20762;-77
2021/07/13 12:21:15;;;;;;;0.70;0.50;;;21.60;48.60;;;;;;5089289;28;20028;-91
2021/07/13 12:23:45;;;;;;;0.95;0.70;;;21.60;50.30;;;;;;5094618;28;20039;-90
2021/07/13 12:26:23;;;;;;;1.00;0.70;;;21.50;51.60;;;;;;5094225;28;20039;-92
2021/07/13 12:29:01;;;;;;;0.75;0.52;;;;;;;;;;5087020;28;20236;-91
2021/07/13 12:31:27;;;;;;;0.57;0.40;;;;;;;;;;5085174;28;20123;-89
2021/07/13 12:33:54;;;;;;;0.50;0.47;;;;;;;;;;5081632;28;20113;-91
2021/07/13 12:36:29;;;;;;;0.60;0.50;;;;;;;;;;5081382;28;20024;-90
2021/07/13 12:38:57;;;;;;;0.75;0.57;;;20.50;49.40;;;;;;5078093;28;20040;-92
2021/07/13 12:41:27;;;;;;;0.80;0.45;;;20.20;50.90;;;;;;5077364;28;20642;-90
2021/07/13 12:43:53;;;;;;;0.50;0.50;;;;;;;;;;5091866;28;20103;-91
2021/07/13 12:46:31;;;;;;;1.08;0.60;;;;;;;;;;5076016;28;20029;-90
2021/07/13 12:48:58;;;;;;;0.50;0.50;;;;;;;;;;5088587;28;20040;-89
2021/07/13 12:51:28;;;;;;;0.60;0.50;;;19.90;61.20;;;;;;5090069;28;20043;-88
2021/07/13 12:54:08;;;;;;;1.25;0.60;;;;;;;;;;5073360;28;20060;-87
2021/07/13 12:56:35;;;;;;;0.65;0.40;;;19.90;59.90;;;;;;5088982;28;20036;-90
2021/07/13 12:59:05;;;;;;;1.35;0.73;;;19.80;62.10;;;;;;5092131;28;20024;-88
2021/07/13 13:01:31;;;;;;;0.43;0.40;;;;;;;;;;5087085;28;20060;-88
2021/07/13 13:04:14;;;;;;;1.23;0.68;;;19.60;63.50;;;;;;5072388;28;20028;-90
2021/07/13 13:06:43;;;;;;;1.60;0.88;;;19.60;63.60;;;;;;5079175;28;20021;-90
2021/07/13 13:09:16;;;;;;;0.75;0.75;;;;;;;;;;5087918;28;20044;-89
2021/07/13 13:11:43;;;;;;;1.40;0.95;;;;;;;;;;5090946;28;20040;-89
2021/07/13 13:14:13;;;;;;;0.80;0.80;;;;;;;;;;5074156;28;20032;-90
2021/07/13 13:16:42;;;;;;;0.70;0.50;;;;;;;;;;5090631;28;20036;-89
2021/07/13 13:19:08;;;;;;;0.88;0.63;;;;;;;;;;5090115;28;20031;-90
2021/07/13 13:21:38;;;;;;;0.83;0.40;;;20.30;56.40;;;;;;5083687;28;20389;-91
2021/07/13 13:24:05;;;;;;;0.50;0.50;;;;;;;;;;5086448;28;20056;-88
2021/07/13 13:26:32;;;;;;;0.88;0.68;;;21.00;57.20;;;;;;5087086;28;20027;-90
2021/07/13 13:28:59;;;;;;;0.47;0.40;;;21.30;57.90;;;;;;5070174;28;20074;-91
2021/07/13 13:31:25;;;;;;;0.88;0.43;;;;;;;;;;5072627;28;20036;-89
2021/07/13 13:33:53;;;;;;;0.43;0.43;;;;;;;;;;5073440;28;20516;-90
2021/07/13 13:38:54;;;;;;;0.70;0.60;;;;;;;;;;5087040;28;20067;-92
2021/07/13 13:41:20;;;;;;;0.90;0.45;;;;;;;;;;5073005;28;20082;-90
2021/07/13 13:43:46;;;;;;;0.30;0.30;;;;;;;;;;5089707;28;20028;-90
2021/07/13 13:46:12;;;;;;;0.60;0.60;;;;;;;;;;5082841;28;20088;-77
2021/07/13 13:48:38;;;;;;;0.45;0.45;;;;;;;;;;5073245;28;20028;-77
2021/07/13 13:51:05;;;;;;;1.73;1.45;;;;;;;;;;5083606;28;20089;-77
2021/07/13 13:53:31;;;;;;;0.47;0.40;;;;;;;;;;5082156;28;20531;-76
2021/07/13 13:55:57;;;;;;;0.30;0.25;;;;;;;;;;5074000;28;20061;-78
2021/07/13 13:58:23;;;;;;;0.55;0.50;;;;;;;;;;5073526;28;20028;-77
2021/07/13 14:00:49;;;;;;;8.02;1.00;;;;;;;;;;5076320;28;20029;-77
2021/07/13 14:03:15;;;;;;;1.55;1.45;;;;;;;;;;5083552;28;20039;-76
2021/07/13 14:05:41;;;;;;;0.32;0.32;;;;;;;;;;5070105;28;20028;-77
2021/07/13 14:08:07;;;;;;;1.77;0.57;;;;;;;;;;5073717;28;20024;-93
2021/07/13 14:10:33;;;;;;;0.55;0.45;;;;;;;;;;5127352;22;20050;-94
2021/07/13 14:12:59;;;;;;;1.23;0.50;;;;;;;;;;5040727;28;20525;-94
2021/07/13 14:15:26;;;;;;;0.73;0.50;;;;;;;;;;5027165;28;20026;-94
2021/07/13 14:17:52;;;;;;;2.15;0.60;;;;;;;;;;4997104;28;20399;-92